Time;durP1;ratioP1;P1;durP2;ratioP2;P2;SDS_P1;SDS_P2;PMS_P1;PMS_P2;Temp;Humidity;BMP_temperature;BMP_pressure;BME280_temperature;BME280_humidity;BME280_pressure;Samples;Min_cycle;Max_cycle;Signal;HPM_P1;HPM_P2
2023/07/22 00:00:08;;;;;;;5.43;4.93;;;17.40;99.90;;;;;;5076765;28;20201;-52
2023/07/22 00:02:35;;;;;;;5.27;4.87;;;17.30;99.90;;;;;;5080420;28;20609;-52
2023/07/22 00:05:03;;;;;;;5.20;4.73;;;17.40;99.90;;;;;;5092815;28;20228;-51
2023/07/22 00:07:30;;;;;;;5.23;4.90;;;17.30;99.90;;;;;;5093082;28;20262;-52
2023/07/22 00:09:59;;;;;;;4.97;4.57;;;17.30;99.90;;;;;;5084378;28;20204;-52
2023/07/22 00:12:26;;;;;;;5.60;5.20;;;17.30;99.90;;;;;;5087023;28;20228;-51
2023/07/22 00:14:54;;;;;;;4.87;4.47;;;17.30;99.90;;;;;;5082254;28;20224;-52
2023/07/22 00:17:21;;;;;;;5.37;5.03;;;17.20;99.90;;;;;;5086045;28;20193;-51
2023/07/22 00:19:48;;;;;;;4.77;4.37;;;17.20;99.90;;;;;;5085371;28;20257;-52
2023/07/22 00:22:16;;;;;;;4.07;3.63;;;17.20;99.90;;;;;;5085271;28;20200;-52
2023/07/22 00:24:43;;;;;;;3.70;3.50;;;17.20;99.90;;;;;;5092536;28;20223;-53
2023/07/22 00:27:11;;;;;;;4.50;4.20;;;17.10;99.90;;;;;;5087740;28;20216;-52
2023/07/22 00:29:38;;;;;;;5.87;4.40;;;17.10;99.90;;;;;;5075258;28;20201;-51
2023/07/22 00:32:09;;;;;;;3.53;3.33;;;17.00;99.90;;;;;;5080160;28;20200;-52
2023/07/22 00:34:36;;;;;;;4.40;4.10;;;17.10;99.90;;;;;;5072259;28;20227;-51
2023/07/22 00:37:03;;;;;;;4.20;3.97;;;17.00;99.90;;;;;;5072233;28;20205;-52
2023/07/22 00:39:30;;;;;;;3.70;3.40;;;17.00;99.90;;;;;;5078088;28;20266;-51
2023/07/22 00:41:57;;;;;;;4.37;4.07;;;17.00;99.90;;;;;;5074521;28;20200;-51
2023/07/22 00:44:25;;;;;;;6.87;4.73;;;17.00;99.90;;;;;;5077199;28;20275;-51
2023/07/22 00:46:55;;;;;;;5.10;4.70;;;17.00;99.90;;;;;;5071829;28;20220;-51
2023/07/22 00:49:23;;;;;;;4.53;4.17;;;16.90;99.90;;;;;;5072486;28;20333;-52
2023/07/22 00:51:50;;;;;;;3.63;3.43;;;16.90;99.90;;;;;;5083312;28;20192;-51
2023/07/22 00:54:17;;;;;;;3.00;2.90;;;16.90;99.90;;;;;;5081013;28;20290;-52
2023/07/22 00:56:45;;;;;;;4.93;4.00;;;16.90;99.90;;;;;;5071543;28;20201;-52
2023/07/22 00:59:14;;;;;;;3.40;3.17;;;16.90;99.90;;;;;;5075328;28;20283;-52
2023/07/22 01:01:43;;;;;;;3.77;3.47;;;16.90;99.90;;;;;;5083675;28;20200;-52
2023/07/22 01:04:10;;;;;;;2.73;2.57;;;16.90;99.90;;;;;;5091814;28;20269;-52
2023/07/22 01:06:38;;;;;;;2.90;2.70;;;16.80;99.90;;;;;;5091827;28;20287;-51
2023/07/22 01:09:09;;;;;;;3.53;3.17;;;16.80;99.90;;;;;;5068944;28;20205;-52
2023/07/22 01:11:35;;;;;;;4.53;2.70;;;16.80;99.90;;;;;;5079032;28;20201;-52
2023/07/22 01:14:03;;;;;;;3.23;3.03;;;16.70;99.90;;;;;;5091434;28;20208;-52
2023/07/22 01:16:31;;;;;;;2.97;2.87;;;16.70;99.90;;;;;;5092064;28;20576;-51
2023/07/22 01:18:59;;;;;;;3.57;3.27;;;16.70;99.90;;;;;;5083340;28;20198;-52
2023/07/22 01:21:27;;;;;;;2.77;2.60;;;16.70;99.90;;;;;;5076617;28;20211;-52
2023/07/22 01:23:57;;;;;;;3.07;2.87;;;16.70;99.90;;;;;;5079468;28;20197;-51
2023/07/22 01:26:24;;;;;;;3.40;2.77;;;16.70;99.90;;;;;;5071746;28;20205;-52
2023/07/22 01:28:51;;;;;;;2.67;2.53;;;16.60;99.90;;;;;;5071552;28;20260;-52
2023/07/22 01:31:18;;;;;;;2.53;2.33;;;16.60;99.90;;;;;;5076507;28;20196;-52
2023/07/22 01:33:45;;;;;;;3.23;2.90;;;16.60;99.90;;;;;;5082881;28;20665;-51
2023/07/22 01:36:12;;;;;;;2.73;2.40;;;16.60;99.90;;;;;;5080374;28;20205;-52
2023/07/22 01:38:39;;;;;;;2.10;2.00;;;16.50;99.90;;;;;;5087858;28;20566;-51
2023/07/22 01:41:07;;;;;;;1.93;1.83;;;16.50;99.90;;;;;;5091583;28;20255;-51
2023/07/22 01:43:34;;;;;;;1.87;1.77;;;16.50;99.90;;;;;;5069480;28;20231;-52
2023/07/22 01:46:01;;;;;;;1.67;1.57;;;16.50;99.90;;;;;;5072265;28;20221;-51
2023/07/22 01:48:29;;;;;;;5.73;2.03;;;16.50;99.90;;;;;;5082961;28;20226;-52
2023/07/22 01:50:56;;;;;;;2.03;1.93;;;16.50;99.90;;;;;;5091776;28;20201;-52
2023/07/22 01:53:22;;;;;;;4.43;2.53;;;16.50;99.90;;;;;;5091220;28;20566;-52
2023/07/22 01:55:50;;;;;;;1.70;1.60;;;16.50;99.90;;;;;;5082289;28;20221;-52
2023/07/22 01:58:18;;;;;;;1.80;1.70;;;16.50;99.90;;;;;;5083377;28;20276;-52
2023/07/22 02:00:45;;;;;;;2.20;2.03;;;16.50;99.90;;;;;;5074866;28;20200;-51
2023/07/22 02:03:12;;;;;;;2.20;2.10;;;16.50;99.90;;;;;;5084088;28;20230;-52
2023/07/22 02:05:39;;;;;;;4.03;1.83;;;16.50;99.90;;;;;;5083620;28;20221;-52
2023/07/22 02:08:05;;;;;;;7.27;3.93;;;16.60;99.90;;;;;;5087508;28;20216;-52
2023/07/22 02:10:32;;;;;;;3.20;2.93;;;16.50;99.90;;;;;;5086499;28;20200;-53
2023/07/22 02:12:59;;;;;;;2.27;2.17;;;16.50;99.90;;;;;;5090597;28;20322;-52
2023/07/22 02:15:28;;;;;;;2.47;2.37;;;16.50;99.90;;;;;;5082118;28;20852;-52
2023/07/22 02:17:55;;;;;;;2.33;2.23;;;16.50;99.90;;;;;;5073591;28;20616;-52
2023/07/22 02:20:22;;;;;;;2.77;2.57;;;16.50;99.90;;;;;;5070115;28;20198;-52
2023/07/22 02:22:50;;;;;;;2.47;2.37;;;16.40;99.90;;;;;;5080136;28;20220;-52
2023/07/22 02:25:17;;;;;;;2.33;2.23;;;16.50;99.90;;;;;;5074502;28;20217;-51
2023/07/22 02:27:47;;;;;;;2.20;2.10;;;16.50;99.90;;;;;;5081987;28;20216;-52
2023/07/22 02:30:14;;;;;;;2.00;1.70;;;16.50;99.90;;;;;;5087121;28;20196;-52
2023/07/22 02:32:42;;;;;;;2.40;2.20;;;16.50;99.90;;;;;;5086753;28;20197;-51
2023/07/22 02:35:10;;;;;;;2.80;2.60;;;16.40;99.90;;;;;;5074636;28;20213;-50
2023/07/22 02:37:39;;;;;;;3.07;2.00;;;16.40;99.90;;;;;;5074336;28;20197;-50
2023/07/22 02:40:07;;;;;;;2.63;2.07;;;16.30;99.90;;;;;;5076812;28;20204;-50
2023/07/22 02:42:36;;;;;;;2.87;2.67;;;16.30;99.90;;;;;;5085266;28;20196;-50
2023/07/22 02:45:03;;;;;;;2.83;2.73;;;16.30;99.90;;;;;;5090701;28;20232;-50
2023/07/22 02:47:30;;;;;;;1.97;1.93;;;16.30;99.90;;;;;;5085902;28;20245;-50
2023/07/22 02:49:59;;;;;;;3.27;3.07;;;16.30;99.90;;;;;;5094333;28;20262;-50
2023/07/22 02:52:26;;;;;;;3.03;2.83;;;16.40;99.90;;;;;;5091479;28;20204;-50
2023/07/22 02:55:10;;;;;;;3.10;2.97;;;16.40;99.90;;;;;;5076534;28;20233;-50
2023/07/22 02:57:38;;;;;;;3.30;3.20;;;16.40;99.90;;;;;;5078005;28;20235;-50
2023/07/22 03:00:08;;;;;;;3.60;3.40;;;16.40;99.90;;;;;;5085453;28;20196;-50
2023/07/22 03:02:35;;;;;;;4.20;3.87;;;16.40;99.90;;;;;;5093871;28;20745;-50
2023/07/22 03:05:07;;;;;;;3.07;2.87;;;16.40;99.90;;;;;;5093951;28;20597;-50
2023/07/22 03:07:34;;;;;;;5.23;4.13;;;16.40;99.90;;;;;;5091245;28;20216;-50
2023/07/22 03:10:01;;;;;;;3.97;3.67;;;16.40;99.90;;;;;;5081872;28;20197;-51
2023/07/22 03:12:28;;;;;;;4.73;4.33;;;16.40;99.90;;;;;;5085413;28;20212;-50
2023/07/22 03:14:55;;;;;;;3.70;3.50;;;16.40;99.90;;;;;;5091697;28;20216;-50
2023/07/22 03:17:22;;;;;;;5.60;4.07;;;16.40;99.90;;;;;;5053650;28;20206;-50
2023/07/22 03:19:49;;;;;;;3.73;3.07;;;16.40;99.90;;;;;;5053545;28;20206;-50
2023/07/22 03:22:18;;;;;;;4.03;3.83;;;16.50;99.90;;;;;;5076626;28;20278;-50
2023/07/22 03:24:46;;;;;;;4.07;3.87;;;16.50;99.90;;;;;;5078683;28;20224;-50
2023/07/22 03:27:14;;;;;;;4.00;3.87;;;16.50;99.90;;;;;;5073490;28;20209;-50
2023/07/22 03:29:42;;;;;;;5.37;5.07;;;16.50;99.90;;;;;;5073333;28;20221;-50
2023/07/22 03:32:09;;;;;;;4.10;3.90;;;16.50;99.90;;;;;;5072964;28;20197;-50
2023/07/22 03:34:36;;;;;;;4.80;4.50;;;16.50;99.90;;;;;;5074433;28;20231;-50
2023/07/22 03:37:04;;;;;;;4.17;3.87;;;16.50;99.90;;;;;;5075854;28;20197;-51
2023/07/22 03:39:32;;;;;;;4.10;3.83;;;16.50;99.90;;;;;;5093311;28;20193;-50
2023/07/22 03:41:59;;;;;;;3.83;3.60;;;16.50;99.90;;;;;;5093360;28;20204;-49
2023/07/22 03:44:28;;;;;;;4.93;3.97;;;16.50;99.90;;;;;;5092590;28;20593;-50
2023/07/22 03:46:55;;;;;;;3.63;3.53;;;16.50;99.90;;;;;;5080439;28;20283;-50
2023/07/22 03:49:22;;;;;;;5.13;3.80;;;16.50;99.90;;;;;;5077576;28;20762;-50
2023/07/22 03:51:49;;;;;;;4.73;4.20;;;16.50;99.90;;;;;;5083066;28;20257;-50
2023/07/22 03:54:16;;;;;;;4.47;3.57;;;16.50;99.90;;;;;;5078293;28;20608;-50
2023/07/22 03:56:44;;;;;;;4.30;4.03;;;16.40;99.90;;;;;;5085422;28;20246;-50
2023/07/22 03:59:11;;;;;;;4.30;3.93;;;16.40;99.90;;;;;;5072949;28;20205;-50
2023/07/22 04:01:38;;;;;;;6.10;4.20;;;16.40;99.90;;;;;;5072096;28;20198;-50
2023/07/22 04:04:05;;;;;;;4.43;4.13;;;16.40;99.90;;;;;;5083682;28;20199;-49
2023/07/22 04:06:32;;;;;;;4.10;3.70;;;16.40;99.90;;;;;;5071287;28;20206;-50
2023/07/22 04:09:00;;;;;;;4.37;4.07;;;16.40;99.90;;;;;;5052470;28;20252;-50
2023/07/22 04:11:27;;;;;;;3.20;3.00;;;16.40;99.90;;;;;;5052459;28;20300;-49
2023/07/22 04:13:55;;;;;;;3.53;3.40;;;16.40;99.90;;;;;;5052194;28;20198;-50
2023/07/22 04:16:22;;;;;;;3.93;3.73;;;16.40;99.90;;;;;;5073030;28;20205;-50
2023/07/22 04:18:49;;;;;;;4.07;3.77;;;16.40;99.90;;;;;;5072520;28;20716;-50
2023/07/22 04:21:16;;;;;;;3.83;3.67;;;16.40;99.90;;;;;;5072307;28;20201;-49
2023/07/22 04:23:43;;;;;;;3.83;3.40;;;16.40;99.90;;;;;;5068595;28;20209;-50
2023/07/22 04:26:11;;;;;;;3.47;3.00;;;16.40;99.90;;;;;;5071743;28;20302;-49
2023/07/22 04:28:38;;;;;;;4.03;3.07;;;16.40;99.90;;;;;;5071013;28;20274;-49
2023/07/22 04:31:06;;;;;;;3.50;3.30;;;16.40;99.90;;;;;;5083466;28;20201;-50
2023/07/22 04:33:33;;;;;;;3.90;3.70;;;16.50;99.90;;;;;;5092086;28;20678;-50
2023/07/22 04:36:00;;;;;;;3.70;3.40;;;16.50;99.90;;;;;;5092239;28;20277;-50
2023/07/22 04:38:28;;;;;;;3.67;3.43;;;16.50;99.90;;;;;;5092143;28;20196;-49
2023/07/22 04:40:55;;;;;;;3.63;3.43;;;16.50;99.90;;;;;;5064438;28;20251;-49
2023/07/22 04:43:22;;;;;;;4.33;4.03;;;16.50;99.90;;;;;;5076148;28;20197;-50
2023/07/22 04:45:49;;;;;;;4.40;3.83;;;16.50;99.90;;;;;;5089503;28;20217;-50
2023/07/22 04:48:22;;;;;;;3.43;3.33;;;16.50;99.90;;;;;;5092007;28;20212;-50
2023/07/22 04:50:48;;;;;;;3.13;2.93;;;16.50;99.90;;;;;;5092437;28;20229;-50
2023/07/22 04:53:17;;;;;;;4.37;4.17;;;16.60;99.90;;;;;;5091969;28;20201;-50
2023/07/22 04:55:44;;;;;;;3.07;2.87;;;16.60;99.90;;;;;;5083444;28;20237;-49
2023/07/22 04:58:11;;;;;;;4.70;4.37;;;16.60;99.90;;;;;;5066371;28;20207;-50
2023/07/22 05:00:38;;;;;;;3.23;2.90;;;16.60;99.90;;;;;;5076743;28;20205;-50
2023/07/22 05:03:06;;;;;;;3.53;3.33;;;16.60;99.90;;;;;;5076771;28;20201;-49
2023/07/22 05:05:35;;;;;;;3.50;3.30;;;16.60;99.90;;;;;;5086932;28;20219;-51
2023/07/22 05:08:02;;;;;;;4.43;4.13;;;16.60;99.90;;;;;;5091918;28;20207;-50
2023/07/22 05:10:29;;;;;;;3.63;3.43;;;16.70;99.90;;;;;;5091982;28;20210;-50
2023/07/22 05:12:57;;;;;;;4.80;4.37;;;16.80;99.90;;;;;;5078588;28;20232;-51
2023/07/22 05:15:25;;;;;;;3.63;3.43;;;16.80;99.90;;;;;;5082007;28;20595;-50
2023/07/22 05:17:52;;;;;;;5.30;4.57;;;16.80;99.90;;;;;;5091840;28;20810;-50
2023/07/22 05:20:19;;;;;;;4.30;4.10;;;16.90;99.90;;;;;;5092117;28;20242;-50
2023/07/22 05:22:50;;;;;;;4.80;4.60;;;16.90;99.90;;;;;;5091501;28;20670;-50
2023/07/22 05:25:17;;;;;;;4.57;4.37;;;17.00;99.90;;;;;;5091720;28;20222;-51
2023/07/22 05:27:45;;;;;;;4.80;4.47;;;17.10;99.90;;;;;;5077971;28;20193;-50
2023/07/22 05:30:12;;;;;;;5.27;4.77;;;17.20;99.90;;;;;;5081711;28;20713;-49
2023/07/22 05:32:39;;;;;;;4.17;3.97;;;17.20;99.90;;;;;;5076098;28;20744;-50
2023/07/22 05:35:06;;;;;;;4.80;4.40;;;17.30;99.90;;;;;;5071428;28;20275;-50
2023/07/22 05:37:33;;;;;;;4.30;4.10;;;17.30;99.90;;;;;;5072916;28;20200;-51
2023/07/22 05:40:02;;;;;;;4.00;3.70;;;17.30;99.90;;;;;;5073217;28;20249;-50
2023/07/22 05:42:29;;;;;;;4.43;4.23;;;17.30;99.90;;;;;;5077718;28;20224;-50
2023/07/22 05:44:56;;;;;;;3.60;3.33;;;17.30;99.90;;;;;;5090684;28;20223;-50
2023/07/22 05:47:23;;;;;;;3.47;3.37;;;17.30;99.90;;;;;;5074062;28;20745;-51
2023/07/22 05:49:50;;;;;;;4.17;3.97;;;17.40;99.90;;;;;;5055291;28;20312;-50
2023/07/22 05:52:17;;;;;;;4.43;4.23;;;17.50;99.90;;;;;;5054921;28;20264;-50
2023/07/22 05:54:44;;;;;;;5.97;5.40;;;17.60;99.90;;;;;;5054775;28;20233;-50
2023/07/22 05:57:13;;;;;;;4.20;3.90;;;17.90;99.90;;;;;;5075637;28;20579;-50
2023/07/22 05:59:40;;;;;;;4.13;3.77;;;18.00;99.90;;;;;;5091546;28;20188;-51
2023/07/22 06:02:08;;;;;;;4.23;4.03;;;18.10;99.90;;;;;;5095028;28;20692;-50
2023/07/22 06:04:35;;;;;;;8.23;3.73;;;18.10;99.90;;;;;;5081730;28;20633;-50
2023/07/22 06:07:02;;;;;;;3.10;3.00;;;18.20;99.90;;;;;;5085095;28;20226;-51
2023/07/22 06:09:29;;;;;;;2.73;2.53;;;18.10;99.90;;;;;;5083033;28;20267;-50
2023/07/22 06:11:56;;;;;;;2.67;2.57;;;17.90;99.90;;;;;;5093600;28;20548;-50
2023/07/22 06:14:24;;;;;;;4.37;3.10;;;17.80;99.90;;;;;;5094865;28;20220;-50
2023/07/22 06:16:51;;;;;;;3.23;3.03;;;17.80;99.90;;;;;;5082578;28;20205;-49
2023/07/22 06:19:18;;;;;;;3.00;2.90;;;17.70;99.90;;;;;;5074891;28;20200;-50
2023/07/22 06:21:45;;;;;;;3.83;3.47;;;17.70;99.90;;;;;;5073144;28;20683;-50
2023/07/22 06:24:12;;;;;;;3.17;3.00;;;17.70;99.90;;;;;;5054500;28;20221;-52
2023/07/22 06:26:39;;;;;;;2.97;2.87;;;17.60;99.90;;;;;;5054830;28;20209;-50
2023/07/22 06:29:06;;;;;;;2.80;2.60;;;17.70;99.90;;;;;;5054622;28;20214;-50
2023/07/22 06:31:35;;;;;;;2.03;1.93;;;17.90;99.90;;;;;;5054530;28;20202;-51
2023/07/22 06:34:03;;;;;;;2.80;2.70;;;18.10;99.90;;;;;;5073305;28;20655;-50
2023/07/22 06:36:30;;;;;;;3.47;3.13;;;18.20;99.90;;;;;;5073894;28;20236;-50
2023/07/22 06:38:56;;;;;;;2.40;2.30;;;18.20;99.90;;;;;;5055082;28;20210;-50
2023/07/22 06:41:24;;;;;;;2.53;2.40;;;18.20;99.90;;;;;;5062036;28;20197;-50
2023/07/22 06:43:52;;;;;;;2.77;2.57;;;18.20;99.90;;;;;;5072064;28;20280;-50
2023/07/22 06:46:19;;;;;;;3.23;3.10;;;18.30;99.90;;;;;;5088961;28;20193;-49
2023/07/22 06:48:48;;;;;;;3.13;2.93;;;18.40;99.90;;;;;;5065691;28;20312;-49
2023/07/22 06:51:15;;;;;;;4.40;3.00;;;18.80;99.90;;;;;;5074582;28;20265;-50
2023/07/22 06:53:42;;;;;;;2.77;2.57;;;19.80;99.90;;;;;;5075216;28;20641;-51
2023/07/22 06:56:09;;;;;;;3.20;2.97;;;21.00;99.90;;;;;;5074398;28;20654;-49
2023/07/22 06:58:36;;;;;;;2.97;2.77;;;22.00;99.90;;;;;;5077720;28;20200;-51
2023/07/22 07:01:03;;;;;;;2.87;2.77;;;22.90;99.90;;;;;;5053825;28;20206;-51
2023/07/22 07:03:30;;;;;;;3.07;2.80;;;23.70;99.90;;;;;;5073595;28;20642;-50
2023/07/22 07:05:58;;;;;;;3.27;2.97;;;24.10;99.90;;;;;;5073609;28;20294;-50
2023/07/22 07:08:25;;;;;;;3.40;2.57;;;24.30;99.90;;;;;;5073599;28;20285;-50
2023/07/22 07:10:53;;;;;;;2.93;2.83;;;24.10;99.90;;;;;;5059592;28;20271;-50
2023/07/22 07:13:20;;;;;;;3.53;2.40;;;24.30;99.90;;;;;;5070037;28;20288;-50
2023/07/22 07:15:49;;;;;;;2.63;2.53;;;24.30;99.90;;;;;;5081276;28;20217;-50
2023/07/22 07:18:17;;;;;;;3.97;3.67;;;24.40;99.90;;;;;;5064118;28;20296;-51
2023/07/22 07:20:45;;;;;;;3.37;3.27;;;23.90;99.90;;;;;;5062382;28;20321;-50
2023/07/22 07:23:16;;;;;;;2.57;2.40;;;23.60;99.90;;;;;;5059511;28;20202;-50
2023/07/22 07:25:44;;;;;;;2.33;2.13;;;23.50;99.90;;;;;;5053640;28;20224;-51
2023/07/22 07:28:13;;;;;;;2.73;2.50;;;23.50;99.90;;;;;;5053640;28;20660;-50
2023/07/22 07:30:40;;;;;;;2.50;2.40;;;23.60;99.90;;;;;;5064675;28;20324;-50
2023/07/22 07:33:06;;;;;;;3.03;2.93;;;24.00;99.90;;;;;;5065980;28;20251;-51
2023/07/22 07:35:33;;;;;;;3.00;2.80;;;24.80;99.90;;;;;;5081511;28;20224;-50
2023/07/22 07:38:00;;;;;;;3.10;2.93;;;25.60;99.90;;;;;;5071997;28;20201;-51
2023/07/22 07:40:29;;;;;;;3.87;3.63;;;26.40;99.90;;;;;;5078474;28;20204;-51
2023/07/22 07:42:56;;;;;;;3.10;2.90;;;26.80;99.90;;;;;;5076335;28;20205;-50
2023/07/22 07:45:23;;;;;;;2.25;2.15;;;27.40;99.90;;;;;;5071165;28;20220;-51
2023/07/22 07:47:51;;;;;;;2.45;2.03;;;27.40;99.90;;;;;;5071436;28;20193;-51
2023/07/22 07:50:18;;;;;;;1.90;1.80;;;27.20;99.90;;;;;;5076359;28;20220;-50
2023/07/22 07:52:49;;;;;;;2.95;2.63;;;27.20;99.90;;;;;;5071711;28;20202;-51
2023/07/22 07:55:16;;;;;;;2.00;1.90;;;27.00;99.90;;;;;;5076445;28;20253;-50
2023/07/22 07:57:48;;;;;;;3.53;3.33;;;26.50;99.90;;;;;;5066704;28;20266;-51
2023/07/22 08:00:15;;;;;;;2.53;2.42;;;25.90;99.90;;;;;;5070047;28;20201;-50
2023/07/22 08:02:45;;;;;;;2.13;2.03;;;25.70;99.90;;;;;;5069802;28;20196;-51
2023/07/22 08:05:13;;;;;;;1.77;1.75;;;25.80;99.90;;;;;;5076343;28;20247;-50
2023/07/22 08:07:43;;;;;;;3.75;2.20;;;25.70;99.90;;;;;;5077216;28;20208;-51
2023/07/22 08:10:11;;;;;;;2.20;2.00;;;26.40;99.90;;;;;;5076866;28;20220;-50
2023/07/22 08:12:42;;;;;;;2.13;2.03;;;26.80;99.90;;;;;;5069366;28;20725;-50
2023/07/22 08:15:11;;;;;;;2.47;2.38;;;27.00;99.90;;;;;;5059436;28;20299;-50
2023/07/22 08:17:39;;;;;;;3.42;3.22;;;26.50;99.90;;;;;;5072254;28;20711;-50
2023/07/22 08:20:08;;;;;;;2.10;2.08;;;26.80;99.90;;;;;;5092310;28;20234;-51
2023/07/22 08:22:35;;;;;;;2.08;1.98;;;26.60;99.90;;;;;;5053075;28;20221;-51
2023/07/22 08:25:02;;;;;;;3.15;3.00;;;27.00;99.90;;;;;;5064120;28;20214;-50
2023/07/22 08:27:30;;;;;;;2.53;2.42;;;26.50;99.90;;;;;;5056687;28;20201;-52
2023/07/22 08:29:57;;;;;;;2.15;2.08;;;26.90;99.90;;;;;;5058570;28;20241;-52
2023/07/22 08:32:25;;;;;;;2.65;2.55;;;27.40;99.90;;;;;;5067162;28;20198;-53
2023/07/22 08:34:52;;;;;;;2.50;2.33;;;27.70;99.90;;;;;;5066049;28;20633;-52
2023/07/22 08:37:19;;;;;;;1.92;1.83;;;27.70;99.90;;;;;;5077361;28;20222;-53
2023/07/22 08:39:46;;;;;;;1.73;1.73;;;28.20;99.90;;;;;;5054151;28;20687;-53
2023/07/22 08:42:15;;;;;;;2.13;2.03;;;28.50;99.90;;;;;;5067454;28;20205;-52
2023/07/22 08:44:45;;;;;;;2.20;2.10;;;28.90;99.90;;;;;;5084848;28;20277;-53
2023/07/22 08:47:16;;;;;;;2.58;2.47;;;28.50;99.90;;;;;;5053127;28;20198;-52
2023/07/22 08:49:51;;;;;;;2.33;2.15;;;28.40;99.90;;;;;;5059854;28;20217;-52
2023/07/22 08:52:19;;;;;;;3.05;1.73;;;28.10;99.90;;;;;;5065995;28;20270;-53
2023/07/22 08:54:46;;;;;;;2.38;2.28;;;27.70;99.90;;;;;;5077645;28;20225;-52
2023/07/22 08:57:13;;;;;;;2.28;2.03;;;27.40;99.90;;;;;;5078136;28;20249;-53
2023/07/22 08:59:42;;;;;;;2.28;2.08;;;27.30;99.90;;;;;;5079283;28;20194;-52
2023/07/22 09:02:12;;;;;;;2.40;2.10;;;26.40;99.90;;;;;;5069604;28;20197;-53
2023/07/22 09:04:40;;;;;;;1.70;1.60;;;25.80;99.90;;;;;;5071246;28;20772;-52
2023/07/22 09:07:10;;;;;;;2.42;2.22;;;25.10;99.90;;;;;;5054909;28;20202;-53
2023/07/22 09:09:37;;;;;;;4.32;3.35;;;25.10;99.90;;;;;;5051503;28;20710;-53
2023/07/22 09:12:06;;;;;;;2.63;2.53;;;25.00;99.90;;;;;;5051672;28;20213;-53
2023/07/22 09:14:35;;;;;;;2.17;1.92;;;24.80;99.90;;;;;;5052715;28;20214;-53
2023/07/22 09:17:02;;;;;;;2.63;2.50;;;24.70;99.90;;;;;;5051596;28;20625;-53
2023/07/22 09:19:31;;;;;;;4.10;3.90;;;24.40;99.90;;;;;;5057574;28;20208;-53
2023/07/22 09:21:58;;;;;;;4.82;4.55;;;24.60;99.90;;;;;;5071512;28;20705;-53
2023/07/22 09:24:29;;;;;;;4.53;3.27;;;24.70;99.90;;;;;;5065672;28;20220;-51
2023/07/22 09:26:56;;;;;;;4.15;3.30;;;24.60;99.90;;;;;;5074819;28;20196;-52
2023/07/22 09:29:34;;;;;;;6.73;6.10;;;24.60;99.90;;;;;;5072054;28;20197;-50
2023/07/22 09:32:03;;;;;;;6.00;4.23;;;24.70;99.90;;;;;;5051410;28;20201;-51
2023/07/22 09:34:30;;;;;;;4.07;3.73;;;25.00;99.90;;;;;;5055288;28;20213;-50
2023/07/22 09:37:00;;;;;;;6.17;4.10;;;25.30;99.90;;;;;;5081253;28;20208;-50
2023/07/22 09:39:28;;;;;;;2.67;2.47;;;25.90;99.90;;;;;;5092100;28;20219;-50
2023/07/22 09:41:55;;;;;;;2.30;2.20;;;26.20;99.90;;;;;;5090427;28;20854;-51
2023/07/22 09:44:23;;;;;;;2.83;2.72;;;27.00;99.90;;;;;;5091081;28;20273;-51
2023/07/22 09:46:50;;;;;;;2.13;2.05;;;27.60;99.90;;;;;;5064284;28;20205;-50
2023/07/22 09:49:19;;;;;;;2.70;2.47;;;28.20;99.90;;;;;;5066099;28;20259;-51
2023/07/22 09:51:52;;;;;;;2.72;2.63;;;28.90;99.90;;;;;;5056890;28;20221;-50
2023/07/22 09:54:20;;;;;;;2.83;2.63;;;29.30;99.90;;;;;;5052954;28;20715;-51
2023/07/22 09:56:50;;;;;;;2.10;2.10;;;30.00;99.90;;;;;;5052090;28;20202;-50
2023/07/22 09:59:19;;;;;;;1.80;1.70;;;29.10;99.90;;;;;;5072734;28;20202;-51
2023/07/22 10:01:48;;;;;;;2.05;1.95;;;28.40;99.90;;;;;;5082267;28;20235;-57
2023/07/22 10:04:19;;;;;;;2.90;2.13;;;27.80;99.90;;;;;;5079328;28;20601;-58
2023/07/22 10:06:46;;;;;;;2.42;2.22;;;26.90;99.90;;;;;;5056573;28;20664;-58
2023/07/22 10:09:15;;;;;;;2.42;2.33;;;26.60;99.90;;;;;;5051287;28;20275;-58
2023/07/22 10:11:42;;;;;;;3.05;2.72;;;25.90;99.90;;;;;;5055662;28;20245;-58
2023/07/22 10:14:14;;;;;;;1.90;1.65;;;25.60;99.90;;;;;;5066649;28;20220;-58
2023/07/22 10:16:42;;;;;;;4.13;1.80;;;25.10;99.90;;;;;;5075526;28;20300;-58
2023/07/22 10:19:11;;;;;;;1.67;1.47;;;24.40;99.90;;;;;;5065154;28;20204;-57
2023/07/22 10:21:39;;;;;;;1.97;1.87;;;24.40;99.90;;;;;;5065030;28;20258;-58
2023/07/22 10:24:07;;;;;;;1.80;1.70;;;24.30;99.90;;;;;;5081507;28;20223;-58
2023/07/22 10:26:35;;;;;;;2.40;2.20;;;24.40;99.90;;;;;;5093071;28;20245;-56
2023/07/22 10:29:02;;;;;;;2.07;1.97;;;24.80;99.90;;;;;;5068127;28;20232;-57
2023/07/22 10:31:33;;;;;;;2.27;1.97;;;25.30;99.90;;;;;;5089195;28;20762;-50
2023/07/22 10:34:00;;;;;;;1.73;1.63;;;25.70;99.90;;;;;;5094623;28;20196;-50
2023/07/22 10:36:31;;;;;;;4.03;2.50;;;26.10;99.90;;;;;;5069191;28;20677;-50
2023/07/22 10:38:59;;;;;;;2.17;2.07;;;26.60;99.90;;;;;;5074125;28;20201;-50
2023/07/22 10:41:26;;;;;;;3.25;1.73;;;27.20;99.90;;;;;;5065165;28;20196;-50
2023/07/22 10:43:58;;;;;;;2.17;2.07;;;27.80;99.90;;;;;;5053841;28;20201;-50
2023/07/22 10:46:38;;;;;;;2.05;1.95;;;28.40;99.90;;;;;;5054057;28;20209;-60
2023/07/22 10:49:11;;;;;;;2.38;1.83;;;28.40;99.90;;;;;;5065599;28;20204;-57
2023/07/22 10:51:39;;;;;;;2.80;2.20;;;28.80;99.90;;;;;;5084311;28;20222;-57
2023/07/22 10:54:12;;;;;;;2.13;2.03;;;28.30;99.90;;;;;;5075263;28;20210;-57
2023/07/22 10:56:41;;;;;;;2.50;2.20;;;28.50;99.90;;;;;;5094151;28;20269;-57
2023/07/22 10:59:11;;;;;;;2.15;2.05;;;28.90;99.90;;;;;;5094206;28;20196;-59
2023/07/22 11:01:40;;;;;;;2.05;1.98;;;28.90;99.90;;;;;;5094187;28;20196;-59
2023/07/22 11:04:10;;;;;;;2.67;1.88;;;29.00;99.90;;;;;;5090659;28;20200;-58
2023/07/22 11:06:38;;;;;;;2.35;2.13;;;28.80;99.90;;;;;;5081859;28;20242;-58
2023/07/22 11:09:05;;;;;;;1.98;1.88;;;28.50;99.90;;;;;;5093402;28;20196;-59
2023/07/22 11:11:39;;;;;;;1.80;1.70;;;28.50;99.90;;;;;;5071978;28;20229;-61
2023/07/22 11:14:22;;;;;;;2.08;1.98;;;27.90;99.90;;;;;;5053337;28;20197;-59
2023/07/22 11:16:50;;;;;;;3.15;1.98;;;27.50;99.90;;;;;;5053460;28;20206;-55
2023/07/22 11:19:21;;;;;;;3.70;3.50;;;27.20;99.90;;;;;;5057643;28;20667;-66
2023/07/22 11:21:49;;;;;;;6.63;6.20;;;27.30;99.90;;;;;;5081616;28;20239;-64
2023/07/22 11:24:17;;;;;;;2.72;2.50;;;27.40;99.90;;;;;;5073365;28;20633;-63
2023/07/22 11:26:46;;;;;;;2.67;2.28;;;27.50;99.90;;;;;;5073458;28;20205;-58
2023/07/22 11:29:14;;;;;;;5.00;2.63;;;27.70;99.90;;;;;;5056535;28;20205;-57
2023/07/22 11:31:45;;;;;;;1.85;1.75;;;27.80;99.90;;;;;;5052685;28;20217;-58
2023/07/22 11:34:14;;;;;;;3.95;2.33;;;27.70;99.90;;;;;;5073568;28;20224;-57
2023/07/22 11:36:41;;;;;;;2.15;2.15;;;27.50;99.90;;;;;;5075869;28;20258;-56
2023/07/22 11:39:10;;;;;;;2.15;2.03;;;27.10;99.90;;;;;;5073251;28;20197;-58
2023/07/22 11:41:38;;;;;;;2.55;2.20;;;26.80;99.90;;;;;;5072931;28;20201;-59
2023/07/22 11:44:08;;;;;;;2.40;1.75;;;26.90;99.90;;;;;;5072580;28;20255;-57
2023/07/22 11:46:36;;;;;;;2.10;2.10;;;27.10;99.90;;;;;;5053360;28;20220;-57
2023/07/22 11:49:03;;;;;;;2.35;2.25;;;26.40;99.90;;;;;;5053027;28;20205;-54
2023/07/22 11:51:33;;;;;;;3.13;2.90;;;26.40;99.90;;;;;;5077193;28;20221;-53
2023/07/22 11:54:00;;;;;;;1.85;1.75;;;26.40;99.90;;;;;;5091545;28;20364;-56
2023/07/22 11:56:29;;;;;;;2.03;1.92;;;26.40;99.90;;;;;;5093022;28;20240;-58
2023/07/22 11:58:57;;;;;;;2.60;1.83;;;25.90;99.90;;;;;;5092795;28;20201;-56
2023/07/22 12:01:24;;;;;;;1.45;1.45;;;25.50;99.90;;;;;;5089854;28;20201;-56
2023/07/22 12:03:57;;;;;;;2.33;1.90;;;25.60;99.90;;;;;;5052221;28;20201;-55
2023/07/22 12:06:26;;;;;;;7.50;3.60;;;25.80;99.90;;;;;;5076458;28;20287;-56
2023/07/22 12:08:55;;;;;;;3.83;2.20;;;25.90;99.90;;;;;;5075243;28;20724;-56
2023/07/22 12:11:23;;;;;;;2.90;2.63;;;25.80;99.90;;;;;;5080045;28;20274;-54
2023/07/22 12:14:05;;;;;;;2.00;2.00;;;25.90;99.90;;;;;;5086164;28;20205;-56
2023/07/22 12:16:32;;;;;;;2.80;2.30;;;25.90;99.90;;;;;;5078684;28;20738;-57
2023/07/22 12:18:59;;;;;;;2.05;1.70;;;26.10;99.90;;;;;;5073783;28;20616;-59
2023/07/22 12:21:26;;;;;;;1.42;1.33;;;25.80;99.90;;;;;;5077427;28;20666;-56
2023/07/22 12:23:54;;;;;;;1.73;1.63;;;25.90;99.90;;;;;;5065377;28;20258;-50
2023/07/22 12:26:21;;;;;;;2.20;1.85;;;25.80;99.90;;;;;;5073613;28;20205;-50
2023/07/22 12:28:48;;;;;;;3.13;2.60;;;25.50;99.90;;;;;;5071142;28;20725;-50
2023/07/22 12:31:16;;;;;;;2.20;2.10;;;25.30;99.90;;;;;;5074062;28;20280;-50
2023/07/22 12:33:43;;;;;;;2.00;1.90;;;25.20;99.90;;;;;;5070043;28;20197;-50
2023/07/22 12:36:11;;;;;;;3.03;1.77;;;25.20;99.90;;;;;;5060772;28;20632;-50
2023/07/22 12:38:38;;;;;;;5.47;2.63;;;25.20;99.90;;;;;;5073824;28;20667;-50
2023/07/22 12:41:06;;;;;;;2.27;2.17;;;25.20;99.90;;;;;;5081832;28;20329;-50
2023/07/22 12:43:33;;;;;;;3.27;2.97;;;25.00;99.90;;;;;;5080432;28;20972;-50
2023/07/22 12:46:00;;;;;;;2.13;1.90;;;25.00;99.90;;;;;;5077730;28;20221;-50
2023/07/22 12:48:27;;;;;;;3.03;2.93;;;25.10;99.90;;;;;;5070403;28;20645;-50
2023/07/22 12:50:54;;;;;;;1.80;1.60;;;25.10;99.90;;;;;;5080231;28;20267;-50